Time;durP1;ratioP1;P1;durP2;ratioP2;P2;SDS_P1;SDS_P2;PMS_P1;PMS_P2;Temp;Humidity;BMP_temperature;BMP_pressure;BME280_temperature;BME280_humidity;BME280_pressure;Samples;Min_cycle;Max_cycle;Signal;HPM_P1;HPM_P2
2022/05/02 00:01:41;;;;;;;;;;;;;;;10.95;55.05;100751.09;4897597;29;5727;-93
2022/05/02 00:04:08;;;;;;;;;;;;;;;10.95;55.12;100755.66;4899199;29;2047;-93
2022/05/02 00:06:34;;;;;;;;;;;;;;;10.95;55.12;100742.19;4888211;29;5525;-93
2022/05/02 00:09:00;;;;;;;;;;;;;;;10.93;55.04;100734.31;4901644;29;5124;-93
2022/05/02 00:11:27;;;;;;;;;;;;;;;10.91;54.85;100731.84;4916411;29;2548;-93
2022/05/02 00:13:53;;;;;;;;;;;;;;;10.91;54.97;100731.00;4885842;29;5331;-93
2022/05/02 00:16:20;;;;;;;;;;;;;;;10.90;55.01;100732.06;4886559;29;5562;-93
2022/05/02 00:18:46;;;;;;;;;;;;;;;10.89;54.99;100727.72;4904049;29;5064;-93
2022/05/02 00:21:12;;;;;;;;;;;;;;;10.88;54.94;100732.28;4896809;29;2183;-93
2022/05/02 00:23:39;;;;;;;;;;;;;;;10.88;54.88;100720.66;4888708;29;2222;-93
2022/05/02 00:26:05;;;;;;;;;;;;;;;10.86;55.01;100722.75;4881916;29;5333;-93
2022/05/02 00:28:31;;;;;;;;;;;;;;;10.85;54.93;100721.09;4894933;29;5656;-93
2022/05/02 00:30:58;;;;;;;;;;;;;;;10.84;54.92;100714.06;4900881;29;2190;-93
2022/05/02 00:33:25;;;;;;;;;;;;;;;10.82;54.84;100700.78;4900033;29;4997;-93
2022/05/02 00:35:51;;;;;;;;;;;;;;;10.81;54.89;100701.84;4909237;29;2808;-93
2022/05/02 00:38:17;;;;;;;;;;;;;;;10.81;54.89;100707.22;4913818;29;1915;-93
2022/05/02 00:40:44;;;;;;;;;;;;;;;10.80;54.88;100689.44;4891119;29;5334;-93
2022/05/02 00:43:10;;;;;;;;;;;;;;;10.79;54.78;100695.00;4894279;29;5026;-93
2022/05/02 00:45:36;;;;;;;;;;;;;;;10.78;54.78;100691.50;4897395;29;2296;-93
2022/05/02 00:48:03;;;;;;;;;;;;;;;10.78;54.82;100699.59;4898943;29;5018;-93
2022/05/02 00:50:29;;;;;;;;;;;;;;;10.76;54.91;100690.06;4894919;29;2739;-93
2022/05/02 00:52:55;;;;;;;;;;;;;;;10.76;54.83;100688.19;4886806;29;5440;-94
2022/05/02 00:55:22;;;;;;;;;;;;;;;10.74;54.86;100684.91;4893478;29;5960;-93
2022/05/02 00:57:48;;;;;;;;;;;;;;;10.74;54.86;100686.78;4898412;29;1997;-93
2022/05/02 01:00:14;;;;;;;;;;;;;;;10.73;54.78;100679.72;4892342;29;5195;-93
2022/05/02 01:02:41;;;;;;;;;;;;;;;10.70;54.87;100675.59;4900968;29;2880;-93
2022/05/02 01:05:08;;;;;;;;;;;;;;;10.69;54.87;100679.34;4894948;29;2984;-93
2022/05/02 01:07:33;;;;;;;;;;;;;;;10.67;54.68;100678.72;4895537;29;5699;-93
2022/05/02 01:09:59;;;;;;;;;;;;;;;10.67;54.84;100674.16;4898714;29;1504;-93
2022/05/02 01:12:26;;;;;;;;;;;;;;;10.66;54.82;100663.63;4891116;29;5212;-93
2022/05/02 01:14:52;;;;;;;;;;;;;;;10.64;54.70;100671.91;4913987;29;1472;-93
2022/05/02 01:17:18;;;;;;;;;;;;;;;10.63;54.84;100672.94;4892798;29;2576;-93
2022/05/02 01:19:45;;;;;;;;;;;;;;;10.62;54.73;100662.41;4898461;29;1253;-93
2022/05/02 01:22:11;;;;;;;;;;;;;;;10.61;54.70;100660.75;4887380;29;5619;-93
2022/05/02 01:24:37;;;;;;;;;;;;;;;10.59;54.75;100655.59;4909459;29;2473;-93
2022/05/02 01:27:04;;;;;;;;;;;;;;;10.59;54.74;100654.75;4894061;29;5059;-94
2022/05/02 01:29:30;;;;;;;;;;;;;;;10.57;54.69;100651.47;4898711;29;1898;-93
2022/05/02 01:31:56;;;;;;;;;;;;;;;10.57;54.64;100651.47;4889919;29;2862;-93
2022/05/02 01:34:23;;;;;;;;;;;;;;;10.56;54.68;100660.56;4898590;29;2102;-93
2022/05/02 01:36:50;;;;;;;;;;;;;;;10.55;54.81;100653.53;4890145;29;5610;-94
2022/05/02 01:39:17;;;;;;;;;;;;;;;10.56;54.61;100653.34;4899633;29;5025;-94
2022/05/02 01:41:43;;;;;;;;;;;;;;;10.53;54.74;100647.53;4898874;29;2611;-93
2022/05/02 01:44:09;;;;;;;;;;;;;;;10.51;54.70;100650.47;4905532;29;1426;-93
2022/05/02 01:46:35;;;;;;;;;;;;;;;10.50;54.70;100646.13;4896265;29;2783;-93
2022/05/02 01:49:02;;;;;;;;;;;;;;;10.48;54.63;100653.59;4901947;29;1642;-93
2022/05/02 01:51:28;;;;;;;;;;;;;;;10.48;54.55;100650.06;4902935;29;5452;-94
2022/05/02 01:53:54;;;;;;;;;;;;;;;10.45;54.51;100646.75;4913810;29;5106;-93
2022/05/02 01:56:21;;;;;;;;;;;;;;;10.46;54.62;100650.28;4916439;29;5034;-93
2022/05/02 01:58:47;;;;;;;;;;;;;;;10.44;54.60;100650.50;4911672;29;1988;-93
2022/05/02 02:01:13;;;;;;;;;;;;;;;10.44;54.48;100657.72;4905845;29;5377;-93
2022/05/02 02:03:40;;;;;;;;;;;;;;;10.41;54.56;100640.16;4916601;29;5012;-93
2022/05/02 02:06:05;;;;;;;;;;;;;;;10.41;54.56;100642.00;4897167;29;2560;-94
2022/05/02 02:08:31;;;;;;;;;;;;;;;10.39;54.67;100633.34;4902436;29;5019;-93
2022/05/02 02:10:58;;;;;;;;;;;;;;;10.38;54.60;100632.53;4912445;29;2948;-93
2022/05/02 02:13:24;;;;;;;;;;;;;;;10.37;54.57;100630.84;4899474;29;1673;-94
2022/05/02 02:15:50;;;;;;;;;;;;;;;10.35;54.62;100627.56;4895379;29;5381;-93
2022/05/02 02:18:17;;;;;;;;;;;;;;;10.34;54.76;100622.38;4902812;29;5074;-94
2022/05/02 02:20:43;;;;;;;;;;;;;;;10.33;54.38;100629.66;4901854;29;2592;-93
2022/05/02 02:23:09;;;;;;;;;;;;;;;10.31;54.39;100618.25;4910194;29;2293;-93
2022/05/02 02:25:35;;;;;;;;;;;;;;;10.31;54.36;100620.94;4898648;29;2809;-93
2022/05/02 02:28:02;;;;;;;;;;;;;;;10.29;54.48;100620.34;4902486;29;1677;-93
2022/05/02 02:30:28;;;;;;;;;;;;;;;10.28;54.57;100610.63;4901682;29;5722;-93
2022/05/02 02:32:55;;;;;;;;;;;;;;;10.27;54.38;100606.28;4899761;29;5456;-93
2022/05/02 02:35:21;;;;;;;;;;;;;;;10.24;54.52;100596.75;4901912;29;2245;-94
2022/05/02 02:37:47;;;;;;;;;;;;;;;10.24;54.40;100595.91;4895511;29;5107;-94
2022/05/02 02:40:14;;;;;;;;;;;;;;;10.22;54.42;100592.63;4899314;29;2739;-93
2022/05/02 02:42:40;;;;;;;;;;;;;;;10.19;54.49;100588.47;4899589;29;1702;-94
2022/05/02 02:45:07;;;;;;;;;;;;;;;10.18;54.57;100594.91;4902900;29;2954;-93
2022/05/02 02:47:33;;;;;;;;;;;;;;;10.17;54.52;100581.66;4912608;29;5595;-93
2022/05/02 02:49:59;;;;;;;;;;;;;;;10.17;54.53;100587.03;4911432;29;1443;-93
2022/05/02 02:52:26;;;;;;;;;;;;;;;10.15;54.52;100579.19;4904390;29;4945;-93
2022/05/02 02:54:52;;;;;;;;;;;;;;;10.13;54.40;100586.66;4902443;29;2263;-93
2022/05/02 02:57:18;;;;;;;;;;;;;;;10.13;54.43;100575.06;4898369;29;2432;-93
2022/05/02 02:59:45;;;;;;;;;;;;;;;10.13;54.35;100580.44;4906698;29;1585;-93
2022/05/02 03:02:11;;;;;;;;;;;;;;;10.09;54.36;100574.69;4902539;29;2563;-93
2022/05/02 03:07:21;;;;;;;;;;;;;;;10.08;54.28;100566.81;4894663;29;5556;-94
2022/05/02 03:09:47;;;;;;;;;;;;;;;10.05;54.46;100567.25;4910276;29;1443;-94
2022/05/02 03:12:14;;;;;;;;;;;;;;;10.04;54.35;100562.91;4894746;29;5050;-93
2022/05/02 03:14:40;;;;;;;;;;;;;;;10.02;54.43;100555.88;4926863;29;1407;-94
2022/05/02 03:17:06;;;;;;;;;;;;;;;10.01;54.38;100559.59;4897602;29;2797;-94
2022/05/02 03:19:33;;;;;;;;;;;;;;;9.99;54.29;100545.53;4907021;29;1403;-94
2022/05/02 03:21:59;;;;;;;;;;;;;;;9.97;54.42;100544.94;4895145;29;5704;-94
2022/05/02 03:24:26;;;;;;;;;;;;;;;9.95;54.44;100546.19;4902549;29;5010;-94
2022/05/02 03:26:52;;;;;;;;;;;;;;;9.94;54.35;100547.22;4901886;29;4992;-93
2022/05/02 03:29:18;;;;;;;;;;;;;;;9.93;54.44;100543.72;4905270;29;1619;-93
2022/05/02 03:31:45;;;;;;;;;;;;;;;9.92;54.40;100549.31;4900117;29;2765;-94
2022/05/02 03:34:11;;;;;;;;;;;;;;;9.90;54.29;100551.41;4909708;29;2074;-94
2022/05/02 03:36:37;;;;;;;;;;;;;;;9.89;54.29;100549.75;4894470;29;5629;-94
2022/05/02 03:39:04;;;;;;;;;;;;;;;9.88;54.31;100550.78;4894726;29;5150;-93
2022/05/02 03:41:30;;;;;;;;;;;;;;;9.86;54.49;100551.00;4900922;29;5101;-94
2022/05/02 03:43:57;;;;;;;;;;;;;;;9.84;54.38;100552.25;4908808;29;1565;-94
2022/05/02 03:46:23;;;;;;;;;;;;;;;9.82;54.39;100557.84;4897164;29;2810;-94
2022/05/02 03:48:49;;;;;;;;;;;;;;;9.82;54.20;100548.94;4901118;29;2093;-94
2022/05/02 03:51:15;;;;;;;;;;;;;;;9.78;54.41;100543.19;4889349;29;5495;-94
2022/05/02 03:53:42;;;;;;;;;;;;;;;9.77;54.42;100536.97;4890324;29;5251;-94
2022/05/02 03:56:08;;;;;;;;;;;;;;;9.75;54.56;100533.66;4897489;29;2552;-94
2022/05/02 03:58:35;;;;;;;;;;;;;;;9.74;54.43;100528.53;4881754;29;5536;-93
2022/05/02 04:01:01;;;;;;;;;;;;;;;9.72;54.50;100534.09;4894856;29;5529;-93
2022/05/02 04:03:27;;;;;;;;;;;;;;;9.69;54.38;100529.16;4890241;29;5175;-94
2022/05/02 04:05:54;;;;;;;;;;;;;;;9.68;54.52;100526.69;4897101;29;2298;-94
2022/05/02 04:08:20;;;;;;;;;;;;;;;9.69;54.31;100531.03;4911856;29;5430;-94
2022/05/02 04:10:46;;;;;;;;;;;;;;;9.67;54.31;100535.78;4904811;29;2852;-94
2022/05/02 04:13:13;;;;;;;;;;;;;;;9.66;54.39;100531.44;4912858;29;1983;-94
2022/05/02 04:15:39;;;;;;;;;;;;;;;9.63;54.44;100524.63;4893648;29;5650;-93
2022/05/02 04:18:05;;;;;;;;;;;;;;;9.62;54.57;100523.00;4894574;29;5606;-94
2022/05/02 04:20:32;;;;;;;;;;;;;;;9.62;54.30;100527.53;4890641;29;2339;-94
2022/05/02 04:22:58;;;;;;;;;;;;;;;9.61;54.34;100523.19;4910641;29;5014;-94
2022/05/02 04:25:24;;;;;;;;;;;;;;;9.60;54.36;100529.63;4896199;29;2783;-94
2022/05/02 04:27:51;;;;;;;;;;;;;;;9.58;54.33;100524.44;4893056;29;1825;-93
2022/05/02 04:30:17;;;;;;;;;;;;;;;9.59;54.32;100522.56;4895282;29;5601;-93
2022/05/02 04:32:43;;;;;;;;;;;;;;;9.57;54.49;100520.09;4888040;29;5448;-94
2022/05/02 04:35:11;;;;;;;;;;;;;;;9.56;54.35;100515.78;4884027;29;2080;-93
2022/05/02 04:37:37;;;;;;;;;;;;;;;9.53;54.39;100514.34;4882224;29;5626;-94
2022/05/02 04:40:04;;;;;;;;;;;;;;;9.54;54.26;100512.47;4930137;29;2520;-96
2022/05/02 04:42:30;;;;;;;;;;;;;;;9.51;54.33;100519.09;4907579;29;5192;-94
2022/05/02 04:44:57;;;;;;;;;;;;;;;9.52;54.41;100511.84;4904098;29;2900;-94
2022/05/02 04:47:23;;;;;;;;;;;;;;;9.52;54.41;100515.34;4886250;29;5516;-94
2022/05/02 04:49:49;;;;;;;;;;;;;;;9.50;54.13;100497.78;4898896;29;2015;-93
2022/05/02 04:52:16;;;;;;;;;;;;;;;9.49;54.15;100507.72;4913541;29;2534;-94
2022/05/02 04:54:42;;;;;;;;;;;;;;;9.49;54.39;100499.66;4890749;29;5589;-94
2022/05/02 04:57:08;;;;;;;;;;;;;;;9.49;54.24;100501.53;4883752;29;5410;-96
2022/05/02 04:59:35;;;;;;;;;;;;;;;9.49;54.09;100506.91;4879469;29;5547;-93
2022/05/02 05:02:01;;;;;;;;;;;;;;;9.47;54.30;100499.06;4885737;29;4229;-92
2022/05/02 05:04:27;;;;;;;;;;;;;;;9.47;54.09;100495.53;4892806;29;2960;-93
2022/05/02 05:06:54;;;;;;;;;;;;;;;9.44;54.17;100494.13;4890091;29;5555;-94
2022/05/02 05:09:20;;;;;;;;;;;;;;;9.45;54.07;100492.25;4908771;29;1671;-94
2022/05/02 05:11:46;;;;;;;;;;;;;;;9.44;53.93;100485.19;4908855;29;2001;-93
2022/05/02 05:16:57;;;;;;;;;;;;;;;9.44;53.97;100477.13;4891040;29;5464;-93
2022/05/02 05:19:24;;;;;;;;;;;;;;;9.42;54.00;100479.25;4895277;29;1923;-92
2022/05/02 05:21:50;;;;;;;;;;;;;;;9.42;53.79;100472.00;4893004;29;3097;-93
2022/05/02 05:24:17;;;;;;;;;;;;;;;9.43;53.94;100467.44;4901111;29;2343;-92
2022/05/02 05:26:45;;;;;;;;;;;;;;;9.41;53.96;100462.28;4903349;29;5710;-93
2022/05/02 05:29:11;;;;;;;;;;;;;;;9.39;53.82;100456.28;4900471;29;5354;-94
2022/05/02 05:31:38;;;;;;;;;;;;;;;9.40;53.69;100460.63;4904857;29;5082;-94
2022/05/02 05:34:04;;;;;;;;;;;;;;;9.39;53.88;100458.97;4915934;29;1301;-94
2022/05/02 05:36:31;;;;;;;;;;;;;;;9.40;53.84;100462.50;4892580;29;2202;-93
2022/05/02 05:38:57;;;;;;;;;;;;;;;9.39;53.79;100460.84;4885845;29;1982;-93
2022/05/02 05:41:24;;;;;;;;;;;;;;;9.38;53.85;100448.44;4885241;29;5535;-94
2022/05/02 05:43:51;;;;;;;;;;;;;;;9.39;53.63;100447.41;4895345;29;1370;-93
2022/05/02 05:46:17;;;;;;;;;;;;;;;9.37;53.80;100444.09;4904712;29;2669;-93
2022/05/02 05:48:44;;;;;;;;;;;;;;;9.36;53.43;100442.47;4904384;29;1361;-93
2022/05/02 05:51:10;;;;;;;;;;;;;;;9.35;53.67;100447.00;4883598;29;2255;-93
2022/05/02 05:53:37;;;;;;;;;;;;;;;9.35;53.49;100440.78;4893355;29;2386;-96
2022/05/02 05:56:04;;;;;;;;;;;;;;;9.35;53.58;100440.78;4904205;29;2174;-96
2022/05/02 05:58:31;;;;;;;;;;;;;;;9.35;53.46;100440.78;4901146;29;1910;-94
2022/05/02 06:00:57;;;;;;;;;;;;;;;9.34;53.63;100431.91;4907615;29;2482;-93
2022/05/02 06:03:24;;;;;;;;;;;;;;;9.35;53.60;100427.34;4903548;29;2519;-91
2022/05/02 06:05:50;;;;;;;;;;;;;;;9.33;53.42;100431.09;4904422;29;5613;-93
2022/05/02 06:08:17;;;;;;;;;;;;;;;9.33;53.28;100423.03;4886314;29;977;-93
2022/05/02 06:10:43;;;;;;;;;;;;;;;9.34;53.43;100423.84;4903153;29;1982;-93
2022/05/02 06:13:10;;;;;;;;;;;;;;;9.33;53.33;100427.59;4892218;29;1414;-93
2022/05/02 06:18:30;;;;;;;;;;;;;;;9.32;53.23;100412.47;4892786;29;1911;-93
2022/05/02 06:20:57;;;;;;;;;;;;;;;9.32;53.44;100412.47;4886696;29;4532;-93
2022/05/02 06:23:23;;;;;;;;;;;;;;;9.33;53.16;100406.09;4889288;29;1978;-92
2022/05/02 06:25:50;;;;;;;;;;;;;;;9.31;53.20;100400.09;4899235;29;3087;-92
2022/05/02 06:28:16;;;;;;;;;;;;;;;9.31;53.30;100395.53;4883299;29;1215;-93
2022/05/02 06:30:43;;;;;;;;;;;;;;;9.32;53.32;100397.19;4887805;29;2226;-92
2022/05/02 06:33:09;;;;;;;;;;;;;;;9.31;53.38;100389.34;4894280;29;1215;-93
2022/05/02 06:35:36;;;;;;;;;;;;;;;9.31;53.15;100390.16;4898710;29;5833;-93
2022/05/02 06:38:02;;;;;;;;;;;;;;;9.34;53.26;100386.22;4889299;29;1924;-93
2022/05/02 06:40:30;;;;;;;;;;;;;;;9.35;53.18;100381.66;4915836;29;1764;-93
2022/05/02 06:42:57;;;;;;;;;;;;;;;9.32;53.03;100383.75;4902304;29;1842;-93
2022/05/02 06:45:23;;;;;;;;;;;;;;;9.31;53.24;100381.28;4885188;29;2803;-93
2022/05/02 06:47:50;;;;;;;;;;;;;;;9.31;53.29;100370.53;4902097;29;1393;-93
2022/05/02 06:50:16;;;;;;;;;;;;;;;9.31;53.26;100375.91;4899268;29;5353;-93
2022/05/02 06:52:43;;;;;;;;;;;;;;;9.32;53.00;100372.16;4895533;29;5472;-93
2022/05/02 06:55:09;;;;;;;;;;;;;;;9.32;53.00;100374.84;4891663;29;2002;-93
2022/05/02 06:57:36;;;;;;;;;;;;;;;9.30;53.07;100369.72;4900670;29;1312;-93
2022/05/02 07:00:02;;;;;;;;;;;;;;;9.31;53.15;100375.91;4882957;29;1994;-92
2022/05/02 07:02:29;;;;;;;;;;;;;;;9.29;53.05;100370.75;4885329;29;5431;-93
2022/05/02 07:04:55;;;;;;;;;;;;;;;9.31;53.12;100370.53;4900029;29;1850;-92
2022/05/02 07:07:22;;;;;;;;;;;;;;;9.32;53.13;100366.78;4899170;29;1705;-93
2022/05/02 07:09:48;;;;;;;;;;;;;;;9.33;52.97;100365.78;4891386;29;1503;-93
2022/05/02 07:12:15;;;;;;;;;;;;;;;9.32;53.16;100356.03;4905809;29;2804;-93
2022/05/02 07:14:41;;;;;;;;;;;;;;;9.31;52.97;100363.28;4924206;29;1641;-93
2022/05/02 07:17:10;;;;;;;;;;;;;;;9.31;52.96;100360.59;4884986;29;5503;-93
2022/05/02 07:19:37;;;;;;;;;;;;;;;9.32;53.03;100359.56;4889877;29;1911;-93
2022/05/02 07:22:03;;;;;;;;;;;;;;;9.34;52.85;100359.34;4899997;29;5272;-93
2022/05/02 07:24:30;;;;;;;;;;;;;;;9.33;53.15;100363.09;4905839;29;1557;-93
2022/05/02 07:26:56;;;;;;;;;;;;;;;9.33;53.00;100363.09;4893776;29;2860;-93
2022/05/02 07:29:23;;;;;;;;;;;;;;;9.31;52.99;100349.84;4906398;29;1424;-93
2022/05/02 07:31:49;;;;;;;;;;;;;;;9.33;52.89;100361.22;4897725;29;5680;-94
2022/05/02 07:34:16;;;;;;;;;;;;;;;9.33;53.12;100360.41;4897616;29;1891;-93
2022/05/02 07:36:43;;;;;;;;;;;;;;;9.32;53.15;100359.56;4899615;29;1719;-94
2022/05/02 07:39:10;;;;;;;;;;;;;;;9.33;53.00;100355.84;4905170;29;1964;-93
2022/05/02 07:41:36;;;;;;;;;;;;;;;9.35;53.08;100344.84;4895074;29;2428;-93
2022/05/02 07:44:03;;;;;;;;;;;;;;;9.35;53.11;100346.72;4899385;29;1382;-93
2022/05/02 07:46:29;;;;;;;;;;;;;;;9.36;53.00;100351.06;4890452;29;5233;-92
2022/05/02 07:48:56;;;;;;;;;;;;;;;9.36;52.93;100348.38;4901028;29;5284;-94
2022/05/02 07:51:22;;;;;;;;;;;;;;;9.36;53.11;100351.06;4913588;29;2005;-94
2022/05/02 07:53:49;;;;;;;;;;;;;;;9.36;53.15;100348.38;4901997;29;1980;-93
2022/05/02 07:56:15;;;;;;;;;;;;;;;9.37;53.00;100345.47;4908717;29;2344;-93
2022/05/02 07:58:42;;;;;;;;;;;;;;;9.39;53.18;100338.03;4899329;29;5371;-93
2022/05/02 08:01:09;;;;;;;;;;;;;;;9.38;53.06;100355.16;4904289;29;2088;-93
2022/05/02 08:03:35;;;;;;;;;;;;;;;9.38;52.92;100352.47;4896265;29;1561;-93
2022/05/02 08:06:02;;;;;;;;;;;;;;;9.37;53.07;100340.09;4895167;29;2311;-93
2022/05/02 08:08:28;;;;;;;;;;;;;;;9.39;52.98;100350.66;4913382;29;2744;-93
2022/05/02 08:10:55;;;;;;;;;;;;;;;9.39;53.23;100342.59;4903025;29;5770;-93
2022/05/02 08:13:22;;;;;;;;;;;;;;;9.39;53.10;100346.09;4887867;29;1468;-93
2022/05/02 08:15:48;;;;;;;;;;;;;;;9.39;53.09;100348.78;4909180;29;2457;-92
2022/05/02 08:18:15;;;;;;;;;;;;;;;9.42;53.10;100360.97;4896001;29;5668;-92
2022/05/02 08:20:41;;;;;;;;;;;;;;;9.40;53.16;100353.09;4897048;29;5446;-92
2022/05/02 08:28:36;;;;;;;;;;;;;;;9.44;52.96;100338.22;4900682;29;1386;-93
2022/05/02 08:31:03;;;;;;;;;;;;;;;9.44;52.63;100327.44;4903406;29;2627;-93
2022/05/02 08:33:30;;;;;;;;;;;;;;;9.43;52.95;100333.03;4893783;29;5642;-94
2022/05/02 08:35:56;;;;;;;;;;;;;;;9.45;53.02;100336.34;4895596;29;1666;-93
2022/05/02 08:38:23;;;;;;;;;;;;;;;9.45;52.90;100328.28;4912816;29;1919;-93
2022/05/02 08:40:49;;;;;;;;;;;;;;;9.46;53.15;100325.34;4905252;29;1796;-93
2022/05/02 08:43:16;;;;;;;;;;;;;;;9.47;53.03;100331.53;4903007;29;2556;-94
2022/05/02 08:45:42;;;;;;;;;;;;;;;9.46;52.88;100325.34;4903898;29;1939;-93
2022/05/02 08:48:09;;;;;;;;;;;;;;;9.47;52.97;100326.16;4910465;29;1372;-93
2022/05/02 08:50:42;;;;;;;;;;;;;;;9.48;52.83;100322.47;4886599;29;5500;-93
2022/05/02 08:53:10;;;;;;;;;;;;;;;9.48;52.84;100333.22;4904182;29;1925;-93
2022/05/02 08:55:37;;;;;;;;;;;;;;;9.50;52.88;100323.03;4897312;29;5029;-93
2022/05/02 08:58:03;;;;;;;;;;;;;;;9.51;52.87;100317.47;4909363;29;1439;-92
2022/05/02 09:00:30;;;;;;;;;;;;;;;9.51;52.82;100313.94;4902285;29;2297;-93
2022/05/02 09:02:56;;;;;;;;;;;;;;;9.50;52.81;100323.88;4920019;29;1319;-92
2022/05/02 09:05:23;;;;;;;;;;;;;;;9.51;52.77;100320.16;4898396;29;5407;-93
2022/05/02 09:07:50;;;;;;;;;;;;;;;9.51;52.77;100320.16;4913223;29;2144;-93
2022/05/02 09:10:16;;;;;;;;;;;;;;;9.51;52.65;100313.94;4904813;29;5677;-92
2022/05/02 09:12:43;;;;;;;;;;;;;;;9.53;52.90;100304.63;4908048;29;1361;-92
2022/05/02 09:15:09;;;;;;;;;;;;;;;9.55;52.93;100317.84;4896374;29;5537;-94
2022/05/02 09:17:36;;;;;;;;;;;;;;;9.55;52.85;100315.97;4898679;29;5284;-93
2022/05/02 09:20:03;;;;;;;;;;;;;;;9.57;52.67;100304.19;4898710;29;2406;-92
2022/05/02 09:22:29;;;;;;;;;;;;;;;9.58;52.81;100311.22;4900001;29;5128;-93
2022/05/02 09:24:56;;;;;;;;;;;;;;;9.57;52.82;100310.38;4903355;29;1414;-93
2022/05/02 09:27:24;;;;;;;;;;;;;;;9.59;52.81;100304.78;4906744;29;2246;-95
2022/05/02 09:29:52;;;;;;;;;;;;;;;9.60;52.90;100317.19;4909236;29;1498;-96
2022/05/02 09:32:18;;;;;;;;;;;;;;;9.61;53.08;100306.22;4901215;29;5058;-95
2022/05/02 09:34:45;;;;;;;;;;;;;;;9.61;53.01;100308.91;4901538;29;1742;-96
2022/05/02 09:37:11;;;;;;;;;;;;;;;9.62;53.04;100309.72;4892193;29;5338;-96
2022/05/02 09:39:38;;;;;;;;;;;;;;;9.65;52.97;100303.94;4907613;29;1980;-96
2022/05/02 09:42:04;;;;;;;;;;;;;;;9.65;52.96;100298.56;4899313;29;1847;-96
2022/05/02 09:49:59;;;;;;;;;;;;;;;9.65;52.92;100291.31;4906780;29;1458;-95
2022/05/02 09:52:26;;;;;;;;;;;;;;;9.66;53.13;100279.50;4918761;29;2510;-95
2022/05/02 09:57:37;;;;;;;;;;;;;;;9.68;52.88;100281.97;4913747;29;1330;-96
2022/05/02 10:02:44;;;;;;;;;;;;;;;9.69;52.87;100276.34;4898793;29;1304;-96
2022/05/02 10:05:11;;;;;;;;;;;;;;;9.71;52.91;100265.41;4906131;29;5501;-95
2022/05/02 10:07:37;;;;;;;;;;;;;;;9.71;52.83;100268.91;4913844;29;1312;-94
2022/05/02 10:10:04;;;;;;;;;;;;;;;9.72;53.07;100264.34;4901478;29;1564;-94
2022/05/02 10:12:30;;;;;;;;;;;;;;;9.71;52.70;100255.47;4897743;29;1412;-96
2022/05/02 10:14:57;;;;;;;;;;;;;;;9.73;52.76;100265.97;4891040;29;2547;-96
2022/05/02 10:17:24;;;;;;;;;;;;;;;9.75;53.03;100261.22;4891109;29;2377;-95
2022/05/02 10:19:50;;;;;;;;;;;;;;;9.76;53.11;100258.31;4908354;29;1915;-96
2022/05/02 10:22:17;;;;;;;;;;;;;;;9.76;53.14;100263.69;4914658;29;1976;-95
2022/05/02 10:24:43;;;;;;;;;;;;;;;9.80;53.12;100263.25;4897726;29;1287;-96
2022/05/02 10:27:10;;;;;;;;;;;;;;;9.81;53.14;100264.88;4915952;29;2594;-96
2022/05/02 10:29:36;;;;;;;;;;;;;;;9.80;53.25;100266.75;4920570;29;2021;-96
2022/05/02 10:32:03;;;;;;;;;;;;;;;9.81;53.20;100257.63;4905706;29;5515;-96
2022/05/02 10:34:29;;;;;;;;;;;;;;;9.81;53.23;100260.31;4899025;29;2058;-96
2022/05/02 10:36:56;;;;;;;;;;;;;;;9.82;53.05;100270.03;4914643;29;1676;-94
2022/05/02 10:39:22;;;;;;;;;;;;;;;9.83;53.19;100263.63;4885617;29;1887;-94
2022/05/02 10:41:49;;;;;;;;;;;;;;;9.84;53.11;100265.25;4890507;29;4900;-96
2022/05/02 10:44:15;;;;;;;;;;;;;;;9.86;53.28;100265.88;4911840;29;1597;-95
2022/05/02 10:46:42;;;;;;;;;;;;;;;9.88;53.23;100260.25;4898953;29;2284;-95
2022/05/02 10:49:09;;;;;;;;;;;;;;;9.89;53.22;100265.44;4891760;29;1803;-94
2022/05/02 10:51:35;;;;;;;;;;;;;;;9.90;53.21;100253.59;4909129;29;2303;-95
2022/05/02 10:54:02;;;;;;;;;;;;;;;9.92;53.01;100256.09;4894170;29;5400;-94
2022/05/02 10:56:28;;;;;;;;;;;;;;;9.93;53.17;100249.66;4915237;29;2065;-94
2022/05/02 10:58:55;;;;;;;;;;;;;;;9.93;52.99;100258.53;4900344;29;1966;-94
2022/05/02 11:01:22;;;;;;;;;;;;;;;9.95;53.25;100247.56;4906574;29;2407;-95
2022/05/02 11:03:49;;;;;;;;;;;;;;;9.95;53.12;100253.78;4908785;29;2522;-95
2022/05/02 11:06:16;;;;;;;;;;;;;;;9.96;52.87;100254.59;4892142;29;2516;-94
2022/05/02 11:08:42;;;;;;;;;;;;;;;9.97;52.94;100256.22;4900791;29;5468;-94
2022/05/02 11:11:09;;;;;;;;;;;;;;;10.00;53.28;100256.63;4895247;29;2294;-92
2022/05/02 11:13:35;;;;;;;;;;;;;;;10.02;53.32;100253.69;4903421;29;5434;-91
2022/05/02 11:16:02;;;;;;;;;;;;;;;10.01;52.92;100255.56;4885275;29;5276;-92
2022/05/02 11:21:13;;;;;;;;;;;;;;;10.05;53.05;100258.63;4890016;29;2101;-93
2022/05/02 11:23:40;;;;;;;;;;;;;;;10.07;53.24;100251.16;4908812;29;5587;-93
2022/05/02 11:26:06;;;;;;;;;;;;;;;10.08;53.27;100247.41;4895514;29;2151;-92
2022/05/02 11:28:33;;;;;;;;;;;;;;;10.11;53.40;100240.78;4885123;29;1722;-92
2022/05/02 11:30:59;;;;;;;;;;;;;;;10.12;53.48;100250.50;4897536;29;5398;-92
2022/05/02 11:33:27;;;;;;;;;;;;;;;10.13;53.32;100250.25;4922434;29;1666;-92
2022/05/02 11:35:54;;;;;;;;;;;;;;;10.13;53.62;100250.25;4917662;29;1608;-93
2022/05/02 11:38:21;;;;;;;;;;;;;;;10.15;53.35;100255.44;4912292;29;1309;-94
2022/05/02 11:40:47;;;;;;;;;;;;;;;10.15;53.43;100261.63;4894100;29;2612;-93
2022/05/02 11:43:14;;;;;;;;;;;;;;;10.16;53.44;100265.16;4906856;29;2278;-93
2022/05/02 11:45:40;;;;;;;;;;;;;;;10.15;52.85;100256.25;4913809;29;5924;-93
2022/05/02 11:48:07;;;;;;;;;;;;;;;10.17;53.23;100264.91;4908680;29;1485;-93
2022/05/02 11:50:33;;;;;;;;;;;;;;;10.18;53.06;100266.56;4913455;29;1729;-93
2022/05/02 11:53:00;;;;;;;;;;;;;;;10.21;53.00;100266.13;4924485;29;1441;-93
2022/05/02 11:55:27;;;;;;;;;;;;;;;10.23;53.11;100272.13;4901717;29;5490;-94
2022/05/02 11:57:53;;;;;;;;;;;;;;;10.25;53.22;100263.81;4905473;29;1343;-93
2022/05/02 12:00:20;;;;;;;;;;;;;;;10.26;53.41;100268.13;4901431;29;2153;-93
2022/05/02 12:02:48;;;;;;;;;;;;;;;10.27;52.93;100267.13;4898849;29;1552;-93
2022/05/02 12:05:14;;;;;;;;;;;;;;;10.27;53.31;100260.94;4890892;29;3238;-93
2022/05/02 12:07:40;;;;;;;;;;;;;;;10.28;52.98;100258.00;4907127;29;1427;-93
2022/05/02 12:10:07;;;;;;;;;;;;;;;10.30;53.38;100253.22;4892785;29;5355;-96
2022/05/02 12:12:34;;;;;;;;;;;;;;;10.31;53.09;100257.53;4899901;29;2148;-95
2022/05/02 12:15:00;;;;;;;;;;;;;;;10.33;53.45;100254.66;4915279;29;2413;-96
2022/05/02 12:17:27;;;;;;;;;;;;;;;10.34;53.44;100249.00;4920853;29;1438;-96
2022/05/02 12:19:53;;;;;;;;;;;;;;;10.35;53.38;100247.13;4904874;29;2526;-96
2022/05/02 12:22:21;;;;;;;;;;;;;;;10.36;53.50;100248.81;4901742;29;1502;-96
2022/05/02 12:24:48;;;;;;;;;;;;;;;10.36;53.43;100241.56;4891676;29;4526;-95
2022/05/02 12:27:18;;;;;;;;;;;;;;;10.37;53.43;100251.25;4901244;29;1571;-96
2022/05/02 12:29:45;;;;;;;;;;;;;;;10.40;53.55;100239.22;4908587;29;2184;-96
2022/05/02 12:32:11;;;;;;;;;;;;;;;10.40;53.70;100237.34;4901921;29;1326;-96
2022/05/02 12:34:38;;;;;;;;;;;;;;;10.42;53.68;100239.81;4889311;29;2322;-96
2022/05/02 12:37:04;;;;;;;;;;;;;;;10.42;53.83;100243.34;4907313;29;1681;-95
2022/05/02 12:39:36;;;;;;;;;;;;;;;10.43;53.83;100236.88;4895503;29;5288;-96
2022/05/02 12:42:02;;;;;;;;;;;;;;;10.44;53.81;100243.94;4904747;29;1490;-96
2022/05/02 12:44:29;;;;;;;;;;;;;;;10.45;53.63;100242.88;4898385;29;1921;-96
2022/05/02 12:46:55;;;;;;;;;;;;;;;10.46;53.84;100236.44;4898400;29;1598;-96
2022/05/02 12:49:22;;;;;;;;;;;;;;;10.47;53.84;100237.28;4899436;29;5519;-96
2022/05/02 12:51:48;;;;;;;;;;;;;;;10.47;53.47;100229.22;4915319;29;1435;-96
2022/05/02 12:54:15;;;;;;;;;;;;;;;10.50;53.43;100227.91;4911877;29;1721;-96
2022/05/02 12:56:42;;;;;;;;;;;;;;;10.50;53.37;100231.44;4904476;29;5040;-95
2022/05/02 13:01:53;;;;;;;;;;;;;;;10.54;53.34;100231.81;4915837;29;1380;-95
2022/05/02 13:04:20;;;;;;;;;;;;;;;10.54;53.32;100229.94;4896189;29;5655;-96
2022/05/02 13:06:46;;;;;;;;;;;;;;;10.55;53.24;100226.19;4906475;29;4799;-96
2022/05/02 13:09:14;;;;;;;;;;;;;;;10.57;53.54;100225.97;4914004;29;2302;-95
2022/05/02 13:11:41;;;;;;;;;;;;;;;10.57;53.30;100220.56;4902369;29;1477;-95
2022/05/02 13:14:09;;;;;;;;;;;;;;;10.58;53.24;100219.53;4900803;29;2416;-96
2022/05/02 13:16:36;;;;;;;;;;;;;;;10.60;53.33;100218.25;4891618;29;1463;-96
2022/05/02 13:19:03;;;;;;;;;;;;;;;10.60;53.37;100215.56;4903565;29;5598;-96